Time;durP1;ratioP1;P1;durP2;ratioP2;P2;SDS_P1;SDS_P2;PMS_P1;PMS_P2;Temp;Humidity;BMP_temperature;BMP_pressure;BME280_temperature;BME280_humidity;BME280_pressure;Samples;Min_cycle;Max_cycle;Signal;HPM_P1;HPM_P2
2022/04/15 00:02:24;;;;;;;5.80;2.10;;;9.70;99.90;;;;;;6184527;23;20201;-85
2022/04/15 00:04:50;;;;;;;4.25;1.92;;;8.70;99.90;;;;;;6157805;23;20032;-85
2022/04/15 00:07:17;;;;;;;2.70;1.80;;;8.80;99.90;;;;;;6184575;23;20025;-85
2022/04/15 00:09:43;;;;;;;3.15;1.58;;;9.10;99.90;;;;;;6184638;23;20020;-85
2022/04/15 00:12:17;;;;;;;1.95;1.30;;;10.00;99.90;;;;;;6184690;23;20391;-85
2022/04/15 00:14:44;;;;;;;4.93;1.52;;;8.60;99.90;;;;;;6184355;23;20032;-85
2022/04/15 00:17:10;;;;;;;5.00;1.98;;;9.30;99.90;;;;;;6157328;23;20483;-85
2022/04/15 00:19:36;;;;;;;3.08;1.25;;;9.70;99.90;;;;;;6184782;23;20383;-85
2022/04/15 00:22:02;;;;;;;2.40;1.40;;;8.70;99.90;;;;;;6184683;23;20075;-85
2022/04/15 00:24:27;;;;;;;4.45;2.00;;;8.60;99.90;;;;;;6157867;23;20029;-85
2022/04/15 00:26:53;;;;;;;6.88;1.73;;;9.70;99.90;;;;;;6157606;23;20093;-85
2022/04/15 00:29:19;;;;;;;5.75;1.30;;;8.90;99.90;;;;;;6184715;23;20071;-85
2022/04/15 00:31:44;;;;;;;4.03;1.90;;;8.80;99.90;;;;;;6184659;23;20021;-85
2022/04/15 00:34:10;;;;;;;4.13;1.20;;;9.40;99.90;;;;;;6158005;23;20049;-85
2022/04/15 00:36:36;;;;;;;6.90;1.90;;;9.00;99.90;;;;;;6158017;23;20523;-85
2022/04/15 00:39:01;;;;;;;6.45;1.63;;;9.80;99.90;;;;;;6157755;23;20140;-85
2022/04/15 00:41:27;;;;;;;8.90;1.45;;;8.70;99.90;;;;;;6158197;23;20095;-85
2022/04/15 00:43:54;;;;;;;5.93;1.70;;;9.50;99.90;;;;;;6158250;23;20028;-85
2022/04/15 00:46:20;;;;;;;3.25;1.67;;;9.00;99.90;;;;;;6184207;23;20021;-85
2022/04/15 00:48:45;;;;;;;4.80;1.40;;;9.30;99.90;;;;;;6184494;23;20088;-85
2022/04/15 00:51:11;;;;;;;4.72;1.20;;;9.90;99.90;;;;;;6157828;23;20455;-85
2022/04/15 00:53:40;;;;;;;2.05;1.10;;;8.60;99.90;;;;;;6184738;23;20312;-85
2022/04/15 00:56:08;;;;;;;2.53;1.60;;;8.90;99.90;;;;;;6184287;23;20086;-84
2022/04/15 00:58:38;;;;;;;1.55;1.00;;;8.60;99.90;;;;;;6158506;23;20079;-84
2022/04/15 01:01:05;;;;;;;2.92;1.38;;;8.60;99.90;;;;;;6157826;23;20021;-85
2022/04/15 01:03:32;;;;;;;1.48;0.85;;;8.60;99.90;;;;;;6184674;23;20340;-84
2022/04/15 01:05:59;;;;;;;3.60;1.23;;;9.00;99.90;;;;;;6183765;23;20068;-85
2022/04/15 01:08:30;;;;;;;2.40;1.10;;;9.40;99.90;;;;;;6157296;23;20388;-85
2022/04/15 01:10:58;;;;;;;3.20;1.30;;;8.70;99.90;;;;;;6184521;23;20032;-85
2022/04/15 01:13:25;;;;;;;5.05;1.13;;;9.00;99.90;;;;;;6184285;23;20025;-85
2022/04/15 01:15:53;;;;;;;3.58;1.15;;;10.00;99.90;;;;;;6184571;23;20100;-85
2022/04/15 01:18:19;;;;;;;4.78;1.10;;;8.70;99.90;;;;;;6182163;23;20452;-85
2022/04/15 01:20:48;;;;;;;10.48;1.63;;;8.60;99.90;;;;;;6157900;23;20049;-85
2022/04/15 01:23:14;;;;;;;5.75;1.48;;;8.70;99.90;;;;;;6183878;23;20017;-85
2022/04/15 01:25:40;;;;;;;10.40;1.60;;;8.90;99.90;;;;;;6132949;23;20112;-85
2022/04/15 01:28:06;;;;;;;6.55;1.40;;;9.30;99.90;;;;;;6158519;23;20044;-84
2022/04/15 01:30:32;;;;;;;6.50;1.50;;;8.90;99.90;;;;;;6185891;23;20021;-85
2022/04/15 01:32:57;;;;;;;10.13;2.05;;;10.00;99.90;;;;;;6185697;23;20025;-84
2022/04/15 01:35:23;;;;;;;9.40;2.13;;;8.60;99.90;;;;;;6186030;23;20024;-85
2022/04/15 01:37:49;;;;;;;5.72;2.25;;;9.00;99.90;;;;;;6159917;23;20335;-85
2022/04/15 01:40:17;;;;;;;4.78;1.85;;;9.40;99.90;;;;;;6185891;23;20726;-85
2022/04/15 01:42:44;;;;;;;5.78;1.90;;;9.60;99.90;;;;;;6186323;23;20048;-85
2022/04/15 01:45:11;;;;;;;4.88;1.48;;;8.90;99.90;;;;;;6185352;23;20021;-85
2022/04/15 01:47:38;;;;;;;7.25;1.63;;;9.20;99.90;;;;;;6159554;23;20029;-84
2022/04/15 01:50:05;;;;;;;8.00;2.38;;;8.70;99.90;;;;;;6185771;23;20455;-85
2022/04/15 01:52:31;;;;;;;8.25;2.30;;;8.70;99.90;;;;;;6185767;23;20029;-85
2022/04/15 01:54:57;;;;;;;9.30;2.30;;;9.20;99.90;;;;;;6159592;23;20023;-85
2022/04/15 01:57:23;;;;;;;10.00;2.75;;;9.40;99.90;;;;;;6184206;23;20096;-85
2022/04/15 01:59:49;;;;;;;9.52;2.42;;;8.70;99.90;;;;;;6184174;23;20024;-85
2022/04/15 02:02:14;;;;;;;8.73;2.60;;;8.80;99.90;;;;;;6186004;23;20021;-85
2022/04/15 02:04:40;;;;;;;10.60;2.92;;;8.80;99.90;;;;;;6185105;23;20017;-86
2022/04/15 02:07:06;;;;;;;8.55;2.70;;;8.70;99.90;;;;;;6185268;23;20053;-84
2022/04/15 02:09:32;;;;;;;4.63;1.98;;;10.00;99.90;;;;;;6185671;23;20017;-84
2022/04/15 02:11:58;;;;;;;7.65;3.03;;;8.80;99.90;;;;;;6185299;23;20036;-84
2022/04/15 02:14:24;;;;;;;7.93;3.88;;;9.20;99.90;;;;;;6185683;23;20338;-84
2022/04/15 02:16:53;;;;;;;8.80;4.15;;;8.90;99.90;;;;;;6134369;23;20021;-84
2022/04/15 02:19:22;;;;;;;9.48;4.70;;;8.70;99.90;;;;;;6185551;23;20099;-84
2022/04/15 02:21:48;;;;;;;10.10;4.78;;;8.70;99.90;;;;;;6158895;23;20052;-85
2022/04/15 02:24:14;;;;;;;13.68;6.43;;;8.60;99.90;;;;;;6158984;23;20336;-85
2022/04/15 02:26:41;;;;;;;10.45;5.43;;;8.60;99.90;;;;;;6184679;23;20068;-86
2022/04/15 02:29:06;;;;;;;11.00;5.88;;;8.30;99.90;;;;;;6185785;23;20044;-86
2022/04/15 02:31:32;;;;;;;9.48;5.57;;;9.80;99.90;;;;;;6185295;23;20017;-87
2022/04/15 02:33:58;;;;;;;7.97;4.72;;;9.00;99.90;;;;;;6158639;23;20028;-85
2022/04/15 02:36:23;;;;;;;7.05;4.20;;;8.00;99.90;;;;;;6185128;23;20025;-84
2022/04/15 02:38:49;;;;;;;7.50;4.50;;;8.80;99.90;;;;;;6185016;23;20021;-85
2022/04/15 02:41:15;;;;;;;6.53;3.97;;;9.00;99.90;;;;;;6158906;23;20057;-85
2022/04/15 02:43:41;;;;;;;6.75;3.22;;;9.40;99.90;;;;;;6185445;23;20013;-84
2022/04/15 02:46:09;;;;;;;4.93;4.03;;;8.30;99.90;;;;;;6185548;23;20096;-85
2022/04/15 02:48:35;;;;;;;5.80;3.55;;;9.70;99.90;;;;;;6158561;23;20078;-84
2022/04/15 02:51:02;;;;;;;4.75;3.13;;;9.60;99.90;;;;;;6158679;23;20024;-85
2022/04/15 02:53:29;;;;;;;4.05;2.80;;;8.30;99.90;;;;;;6185172;23;20105;-86
2022/04/15 02:55:55;;;;;;;3.35;2.03;;;8.20;99.90;;;;;;6185235;23;20023;-85
2022/04/15 02:58:21;;;;;;;3.83;2.10;;;8.20;99.90;;;;;;6185344;23;20013;-85
2022/04/15 03:00:47;;;;;;;6.18;3.28;;;8.10;99.90;;;;;;6184681;23;20027;-86
2022/04/15 03:03:13;;;;;;;6.15;2.25;;;8.70;99.90;;;;;;6184947;23;20482;-85
2022/04/15 03:05:39;;;;;;;4.30;2.75;;;8.20;99.90;;;;;;6158373;23;20025;-85
2022/04/15 03:08:06;;;;;;;3.25;2.38;;;8.10;99.90;;;;;;6183566;23;20021;-85
2022/04/15 03:10:32;;;;;;;6.57;2.50;;;7.90;99.90;;;;;;6185202;23;20020;-85
2022/04/15 03:12:57;;;;;;;2.47;2.10;;;8.00;99.90;;;;;;6184739;23;20122;-85
2022/04/15 03:15:23;;;;;;;4.28;2.42;;;8.10;99.90;;;;;;6184311;23;20028;-85
2022/04/15 03:17:49;;;;;;;3.22;1.83;;;8.20;99.90;;;;;;6158523;23;20088;-85
2022/04/15 03:20:15;;;;;;;2.63;2.13;;;7.80;99.90;;;;;;6185234;23;20351;-85
2022/04/15 03:22:44;;;;;;;2.45;1.73;;;8.20;99.90;;;;;;6184609;23;20340;-85
2022/04/15 03:25:17;;;;;;;2.83;1.95;;;7.40;99.90;;;;;;6184945;23;20048;-85
2022/04/15 03:27:43;;;;;;;4.75;2.33;;;7.40;99.90;;;;;;6184543;23;20033;-85
2022/04/15 03:30:11;;;;;;;3.28;2.13;;;8.40;99.90;;;;;;6157865;23;20025;-85
2022/04/15 03:32:53;;;;;;;2.80;1.70;;;7.50;99.90;;;;;;6158268;23;20029;-85
2022/04/15 03:35:23;;;;;;;4.90;2.15;;;8.20;99.90;;;;;;6158401;23;20448;-85
2022/04/15 03:37:52;;;;;;;5.63;1.80;;;8.50;99.90;;;;;;6184550;23;20013;-85
2022/04/15 03:40:19;;;;;;;2.03;1.40;;;7.60;99.90;;;;;;6184931;23;20526;-85
2022/04/15 03:42:50;;;;;;;1.88;1.42;;;8.50;99.90;;;;;;6158534;23;20053;-85
2022/04/15 03:45:22;;;;;;;2.90;1.67;;;7.60;99.90;;;;;;6183476;23;20021;-85
2022/04/15 03:47:54;;;;;;;2.08;1.20;;;7.50;99.90;;;;;;6158125;23;20348;-85
2022/04/15 03:50:20;;;;;;;5.63;2.30;;;8.10;99.90;;;;;;6158120;23;20025;-85
2022/04/15 03:52:47;;;;;;;4.30;1.80;;;8.40;99.90;;;;;;6158169;23;20118;-85
2022/04/15 03:55:14;;;;;;;2.00;1.70;;;8.50;99.90;;;;;;6158234;23;20017;-85
2022/04/15 03:57:40;;;;;;;8.02;1.48;;;8.20;99.90;;;;;;6158146;23;20033;-85
2022/04/15 04:00:15;;;;;;;2.30;1.50;;;8.60;99.90;;;;;;6158137;23;20104;-85
2022/04/15 04:02:46;;;;;;;4.55;1.20;;;7.60;99.90;;;;;;6184538;23;20029;-85
2022/04/15 04:05:13;;;;;;;2.17;1.20;;;7.60;99.90;;;;;;6157455;23;20511;-85
2022/04/15 04:07:40;;;;;;;2.38;1.10;;;7.60;99.90;;;;;;6158073;23;20025;-85
2022/04/15 04:10:06;;;;;;;2.35;2.15;;;7.60;99.90;;;;;;6182871;23;20021;-85
2022/04/15 04:12:33;;;;;;;1.23;0.90;;;7.50;99.90;;;;;;6184230;23;20028;-85
2022/04/15 04:15:00;;;;;;;3.15;1.50;;;7.20;99.90;;;;;;6184644;23;20021;-85
2022/04/15 04:17:25;;;;;;;3.63;1.58;;;6.30;99.90;;;;;;6184759;23;20400;-85
2022/04/15 04:19:51;;;;;;;5.70;1.77;;;7.90;99.90;;;;;;6184486;23;20029;-85
2022/04/15 04:22:17;;;;;;;1.23;1.00;;;7.60;99.90;;;;;;6184415;23;20518;-85
2022/04/15 04:24:42;;;;;;;1.48;1.00;;;7.50;99.90;;;;;;6182694;23;20028;-85
2022/04/15 04:27:08;;;;;;;2.67;1.25;;;7.50;99.90;;;;;;6184385;23;20032;-84
2022/04/15 04:29:34;;;;;;;1.77;1.17;;;8.80;99.90;;;;;;6184379;23;20390;-84
2022/04/15 04:31:59;;;;;;;3.10;1.30;;;7.50;99.90;;;;;;6184505;23;20021;-84
2022/04/15 04:34:25;;;;;;;2.33;1.30;;;7.60;99.90;;;;;;6184623;23;20025;-84
2022/04/15 04:36:51;;;;;;;2.65;1.40;;;8.60;99.90;;;;;;6184345;23;20025;-84
2022/04/15 04:39:16;;;;;;;3.35;1.67;;;8.30;99.90;;;;;;6157930;23;20017;-84
2022/04/15 04:41:42;;;;;;;6.10;2.10;;;8.90;99.90;;;;;;6157700;23;20033;-84
2022/04/15 04:44:08;;;;;;;2.15;1.40;;;8.60;99.90;;;;;;6158247;23;20880;-84
2022/04/15 04:46:35;;;;;;;2.83;2.05;;;7.50;99.90;;;;;;6184526;23;20052;-84
2022/04/15 04:49:01;;;;;;;5.13;1.73;;;7.70;99.90;;;;;;6157990;23;20354;-85
2022/04/15 04:51:27;;;;;;;3.15;1.50;;;7.40;99.90;;;;;;6184380;23;20060;-84
2022/04/15 04:53:52;;;;;;;2.28;1.27;;;8.30;99.90;;;;;;6157743;23;20108;-84
2022/04/15 04:56:18;;;;;;;2.75;1.73;;;8.70;99.90;;;;;;6184570;23;20028;-84
2022/04/15 04:58:44;;;;;;;3.00;1.20;;;7.40;99.90;;;;;;6158116;23;20055;-84
2022/04/15 05:01:10;;;;;;;2.33;1.27;;;7.90;99.90;;;;;;6157160;23;20021;-84
2022/04/15 05:03:35;;;;;;;2.88;1.30;;;7.30;99.90;;;;;;6186048;23;20021;-84
2022/04/15 05:06:01;;;;;;;2.83;1.85;;;8.10;99.90;;;;;;6186061;23;20025;-84
2022/04/15 05:08:27;;;;;;;4.43;1.67;;;8.50;99.90;;;;;;6159665;23;20087;-84
2022/04/15 05:10:55;;;;;;;4.82;2.35;;;7.30;99.90;;;;;;6185929;23;20506;-84
2022/04/15 05:13:21;;;;;;;3.83;1.80;;;7.30;99.90;;;;;;6185576;23;20461;-84
2022/04/15 05:15:47;;;;;;;6.28;2.13;;;7.30;99.90;;;;;;6159057;23;20048;-84
2022/04/15 05:18:14;;;;;;;4.97;1.73;;;8.60;99.90;;;;;;6159635;23;20025;-84
2022/04/15 05:20:40;;;;;;;5.60;2.50;;;8.50;99.90;;;;;;6185984;23;20347;-85
2022/04/15 05:23:06;;;;;;;4.22;2.53;;;7.40;99.90;;;;;;6159204;23;20025;-84
2022/04/15 05:25:31;;;;;;;7.38;3.53;;;7.40;99.90;;;;;;6185832;23;20032;-84
2022/04/15 05:27:58;;;;;;;4.55;2.60;;;8.90;99.90;;;;;;6185955;23;20021;-85
2022/04/15 05:30:24;;;;;;;3.03;2.30;;;7.80;99.90;;;;;;6185524;23;20017;-84
2022/04/15 05:32:50;;;;;;;5.22;1.63;;;8.70;99.90;;;;;;6185862;23;20025;-84
2022/04/15 05:35:16;;;;;;;4.13;1.77;;;8.30;99.90;;;;;;6159545;23;20032;-85
2022/04/15 05:37:41;;;;;;;5.85;2.53;;;7.40;99.90;;;;;;6159501;23;20448;-85
2022/04/15 05:40:08;;;;;;;6.15;2.63;;;8.90;99.90;;;;;;6186218;23;20064;-85
2022/04/15 05:42:34;;;;;;;5.75;2.67;;;7.50;99.90;;;;;;6184344;23;20017;-85
2022/04/15 05:44:59;;;;;;;6.22;3.13;;;7.40;99.90;;;;;;6186039;23;20048;-85
2022/04/15 05:47:25;;;;;;;7.10;3.05;;;7.90;99.90;;;;;;6185882;23;20431;-85
2022/04/15 05:49:51;;;;;;;2.92;2.03;;;8.50;99.90;;;;;;6186151;23;20017;-85
2022/04/15 05:52:16;;;;;;;3.95;2.47;;;8.30;99.90;;;;;;6185718;23;20021;-86
2022/04/15 05:54:42;;;;;;;7.85;3.78;;;8.10;99.90;;;;;;6185614;23;20560;-86
2022/04/15 05:57:08;;;;;;;5.55;3.55;;;7.60;99.90;;;;;;6185980;23;20032;-85
2022/04/15 05:59:33;;;;;;;11.10;6.22;;;7.80;99.90;;;;;;6185538;23;20096;-85
2022/04/15 06:01:59;;;;;;;13.52;6.38;;;8.50;99.90;;;;;;6159893;23;20297;-85
2022/04/15 06:04:25;;;;;;;12.15;6.03;;;7.60;99.90;;;;;;6185592;23;20017;-84
2022/04/15 06:06:50;;;;;;;13.88;6.43;;;7.60;99.90;;;;;;6158882;23;20028;-85
2022/04/15 06:09:16;;;;;;;15.43;7.18;;;7.90;99.90;;;;;;6185894;23;20045;-85
2022/04/15 06:11:42;;;;;;;10.05;4.65;;;8.80;99.90;;;;;;6159207;23;20024;-85
2022/04/15 06:14:08;;;;;;;9.43;4.88;;;8.40;99.90;;;;;;6185793;23;20339;-85
2022/04/15 06:16:37;;;;;;;11.05;5.88;;;7.70;99.90;;;;;;6185792;23;20052;-84
2022/04/15 06:19:04;;;;;;;13.80;6.10;;;8.50;99.90;;;;;;6185822;23;20403;-85
2022/04/15 06:21:33;;;;;;;12.20;6.53;;;8.00;99.90;;;;;;6183876;23;20059;-84
2022/04/15 06:23:59;;;;;;;12.68;6.57;;;8.40;99.90;;;;;;6158776;23;20033;-84
2022/04/15 06:26:25;;;;;;;11.57;6.07;;;8.10;99.90;;;;;;6185477;23;20021;-83
2022/04/15 06:28:51;;;;;;;9.57;4.78;;;7.80;99.90;;;;;;6159292;23;20495;-85
2022/04/15 06:31:16;;;;;;;10.55;4.95;;;9.30;99.90;;;;;;6184897;23;20032;-85
2022/04/15 06:33:42;;;;;;;9.73;4.93;;;9.10;99.90;;;;;;6185243;23;20029;-84
2022/04/15 06:36:08;;;;;;;10.05;6.13;;;9.30;99.90;;;;;;6185654;23;20044;-83
2022/04/15 06:38:33;;;;;;;16.00;6.80;;;8.40;99.90;;;;;;6185904;23;20021;-83
2022/04/15 06:41:00;;;;;;;11.00;5.53;;;8.00;99.90;;;;;;6185556;23;20500;-84
2022/04/15 06:43:25;;;;;;;6.25;3.92;;;8.40;99.90;;;;;;6185888;23;20092;-84
2022/04/15 06:45:51;;;;;;;10.75;4.93;;;8.00;99.90;;;;;;6185186;23;20071;-84
2022/04/15 06:48:17;;;;;;;9.95;5.28;;;8.00;99.90;;;;;;6185469;23;20028;-85
2022/04/15 06:50:42;;;;;;;8.05;3.90;;;8.00;99.90;;;;;;6184827;23;20028;-84
2022/04/15 06:53:08;;;;;;;9.82;3.60;;;8.10;99.90;;;;;;6185555;23;20031;-83
2022/04/15 06:55:34;;;;;;;9.93;4.00;;;8.30;99.90;;;;;;6158749;23;20101;-85
2022/04/15 06:58:00;;;;;;;9.38;4.85;;;8.50;99.90;;;;;;6185482;23;20032;-86
2022/04/15 07:00:26;;;;;;;9.57;4.65;;;8.40;99.90;;;;;;6185039;23;20458;-84
2022/04/15 07:02:51;;;;;;;8.70;4.00;;;8.50;99.90;;;;;;6158704;23;20096;-84
2022/04/15 07:05:17;;;;;;;7.00;3.63;;;9.40;99.90;;;;;;6185355;23;20088;-83
2022/04/15 07:07:43;;;;;;;7.22;2.80;;;8.70;99.90;;;;;;6185324;23;20092;-83
2022/04/15 07:10:11;;;;;;;9.05;3.65;;;9.10;99.90;;;;;;6185152;23;20053;-83
2022/04/15 07:12:37;;;;;;;6.68;4.03;;;9.90;99.90;;;;;;6185515;23;20021;-84
2022/04/15 07:15:05;;;;;;;7.72;3.63;;;8.70;99.90;;;;;;6158583;23;20033;-83
2022/04/15 07:17:30;;;;;;;5.50;3.50;;;8.70;99.90;;;;;;6134273;23;20131;-83
2022/04/15 07:19:56;;;;;;;7.43;3.30;;;8.70;99.90;;;;;;6185280;23;20096;-82
2022/04/15 07:22:22;;;;;;;5.75;3.63;;;8.60;99.90;;;;;;6185307;23;20013;-84
2022/04/15 07:24:49;;;;;;;7.88;4.03;;;9.50;99.90;;;;;;6158462;23;20348;-84
2022/04/15 07:27:15;;;;;;;7.32;3.08;;;8.80;99.90;;;;;;6185090;23;20321;-84
2022/04/15 07:29:41;;;;;;;10.93;3.35;;;8.60;99.90;;;;;;6185221;23;20018;-87
2022/04/15 07:32:07;;;;;;;6.10;3.17;;;9.70;99.90;;;;;;6157638;23;20471;-85
2022/04/15 07:34:35;;;;;;;8.10;3.55;;;8.60;99.90;;;;;;6185247;23;20037;-84
2022/04/15 07:37:03;;;;;;;6.30;3.60;;;8.90;99.90;;;;;;6157696;23;20069;-83
2022/04/15 07:39:29;;;;;;;8.15;4.00;;;9.40;99.90;;;;;;6184611;23;20071;-83
2022/04/15 07:41:55;;;;;;;9.18;3.75;;;9.10;99.90;;;;;;6158030;23;20068;-85
2022/04/15 07:44:21;;;;;;;11.63;3.45;;;8.80;99.90;;;;;;6158583;23;20032;-86
2022/04/15 07:46:47;;;;;;;7.53;3.42;;;9.50;99.90;;;;;;6184915;23;20025;-85
2022/04/15 07:49:14;;;;;;;7.82;3.17;;;9.50;99.90;;;;;;6184911;23;20021;-83
2022/04/15 07:51:40;;;;;;;8.13;2.70;;;8.90;99.90;;;;;;6184264;23;20059;-86
2022/04/15 07:54:07;;;;;;;10.00;3.67;;;9.00;99.90;;;;;;6158345;23;20025;-83
2022/04/15 07:56:33;;;;;;;7.40;2.28;;;9.10;99.90;;;;;;6184617;23;20321;-84
2022/04/15 07:59:00;;;;;;;5.93;2.88;;;9.20;99.90;;;;;;6184845;23;20021;-84
2022/04/15 08:01:28;;;;;;;7.78;3.03;;;9.40;99.90;;;;;;6184559;23;20021;-84
2022/04/15 08:03:55;;;;;;;8.32;3.47;;;9.50;99.90;;;;;;6157419;23;20025;-87
2022/04/15 08:06:22;;;;;;;9.02;3.65;;;9.60;99.90;;;;;;6157603;23;20350;-83
2022/04/15 08:08:49;;;;;;;5.47;2.78;;;9.80;99.90;;;;;;6184597;23;20021;-83
2022/04/15 08:11:14;;;;;;;15.45;4.28;;;9.80;99.90;;;;;;6184479;23;20020;-84
2022/04/15 08:13:40;;;;;;;8.40;2.45;;;10.60;99.90;;;;;;6184717;23;20092;-84
2022/04/15 08:16:07;;;;;;;6.80;2.72;;;9.70;99.90;;;;;;6184883;23;20088;-83
2022/04/15 08:18:33;;;;;;;6.00;2.50;;;9.70;99.90;;;;;;6184141;23;20032;-84
2022/04/15 08:20:59;;;;;;;4.55;2.60;;;10.80;99.90;;;;;;6184511;23;20029;-83
2022/04/15 08:23:26;;;;;;;6.45;2.75;;;9.80;99.90;;;;;;6158409;23;20423;-84
2022/04/15 08:25:52;;;;;;;3.92;2.88;;;10.00;99.90;;;;;;6157780;23;20072;-84
2022/04/15 08:28:17;;;;;;;5.05;2.63;;;10.20;99.90;;;;;;6157845;23;20024;-84
2022/04/15 08:30:43;;;;;;;6.53;2.80;;;10.30;99.90;;;;;;6156941;23;20340;-84
2022/04/15 08:33:10;;;;;;;6.25;3.22;;;10.50;99.90;;;;;;6157881;23;20087;-84
2022/04/15 08:35:36;;;;;;;8.35;3.30;;;11.10;99.90;;;;;;6157784;23;20028;-85
2022/04/15 08:38:03;;;;;;;8.13;3.08;;;10.70;99.90;;;;;;6159146;23;20079;-84
2022/04/15 08:40:34;;;;;;;6.88;3.33;;;10.60;99.90;;;;;;6186958;23;20095;-83
2022/04/15 08:43:00;;;;;;;5.78;2.67;;;10.60;99.90;;;;;;6159941;23;20083;-83
2022/04/15 08:45:28;;;;;;;6.88;2.95;;;10.80;99.90;;;;;;6160000;23;20028;-83
2022/04/15 08:48:00;;;;;;;4.55;2.50;;;11.00;99.90;;;;;;6186831;23;20013;-83
2022/04/15 08:50:28;;;;;;;4.45;2.47;;;11.20;99.90;;;;;;6186871;23;20013;-84
2022/04/15 08:52:54;;;;;;;5.28;2.20;;;11.50;99.90;;;;;;6186957;23;20025;-83
2022/04/15 08:55:24;;;;;;;5.72;3.10;;;11.70;99.90;;;;;;6160248;23;20115;-84
2022/04/15 08:57:51;;;;;;;4.45;2.55;;;11.80;99.90;;;;;;6186928;23;20017;-83
2022/04/15 09:00:21;;;;;;;4.70;2.58;;;11.80;99.90;;;;;;6186563;23;20096;-83
2022/04/15 09:02:47;;;;;;;5.00;2.75;;;11.60;99.90;;;;;;6159947;23;20391;-83
2022/04/15 09:05:19;;;;;;;5.47;2.97;;;11.90;99.90;;;;;;6185328;23;20351;-83
2022/04/15 09:07:45;;;;;;;5.53;3.33;;;11.50;99.90;;;;;;6160022;23;20056;-83
2022/04/15 09:10:12;;;;;;;7.15;3.40;;;11.70;99.90;;;;;;6186408;23;20035;-83
2022/04/15 09:12:40;;;;;;;9.30;3.85;;;11.50;99.90;;;;;;6185362;23;20025;-84
2022/04/15 09:15:06;;;;;;;4.65;2.60;;;11.60;99.90;;;;;;6160265;23;20020;-83
2022/04/15 09:17:34;;;;;;;4.20;2.90;;;11.80;99.90;;;;;;6185128;23;20021;-83
2022/04/15 09:20:00;;;;;;;5.35;3.17;;;11.40;99.90;;;;;;6159925;23;20028;-83
2022/04/15 09:22:26;;;;;;;9.32;3.88;;;11.90;99.90;;;;;;6159771;23;20440;-83
2022/04/15 09:24:52;;;;;;;6.55;3.15;;;11.20;99.90;;;;;;6186501;23;20029;-84
2022/04/15 09:27:19;;;;;;;8.13;3.33;;;11.20;99.90;;;;;;6186180;23;20024;-84
2022/04/15 09:29:46;;;;;;;5.93;3.28;;;11.20;99.90;;;;;;6186310;23;20032;-84
2022/04/15 09:32:16;;;;;;;6.93;3.30;;;11.20;99.90;;;;;;6186281;23;20025;-84
2022/04/15 09:34:56;;;;;;;9.15;3.30;;;11.20;99.90;;;;;;6186338;23;20102;-84
2022/04/15 09:37:27;;;;;;;6.25;3.65;;;11.30;99.90;;;;;;6186135;23;20023;-83
2022/04/15 09:40:15;;;;;;;5.38;3.83;;;12.40;99.90;;;;;;6159977;23;20080;-83
2022/04/15 09:42:47;;;;;;;6.28;2.88;;;11.20;99.90;;;;;;6186375;23;20017;-83
2022/04/15 09:45:16;;;;;;;7.63;2.55;;;11.20;99.90;;;;;;6159724;23;20025;-84
2022/04/15 09:47:43;;;;;;;5.55;2.92;;;11.70;99.90;;;;;;6185712;23;20554;-84
2022/04/15 09:50:22;;;;;;;6.93;3.05;;;11.80;99.90;;;;;;6185547;23;20056;-82
2022/04/15 09:52:50;;;;;;;5.13;2.42;;;11.50;99.90;;;;;;6160134;23;20021;-83
2022/04/15 09:55:19;;;;;;;7.22;2.80;;;12.30;99.90;;;;;;6185867;23;20025;-85
2022/04/15 09:57:47;;;;;;;7.10;2.70;;;11.50;99.90;;;;;;6159559;23;20032;-84
2022/04/15 10:00:14;;;;;;;4.07;2.00;;;11.20;99.90;;;;;;6159415;23;20036;-82
2022/04/15 10:02:44;;;;;;;9.60;3.00;;;11.30;99.90;;;;;;6185946;23;20025;-81
2022/04/15 10:05:12;;;;;;;5.22;2.70;;;11.40;99.90;;;;;;6159654;23;20355;-83
2022/04/15 10:07:40;;;;;;;8.10;2.50;;;11.90;99.90;;;;;;6185848;23;20025;-84
2022/04/15 10:10:09;;;;;;;3.15;2.40;;;11.40;99.90;;;;;;6186460;23;20021;-83
2022/04/15 10:12:41;;;;;;;7.72;2.05;;;11.20;99.90;;;;;;6159835;23;20020;-83
2022/04/15 10:15:09;;;;;;;6.15;2.75;;;11.20;99.90;;;;;;6159728;23;20055;-83
2022/04/15 10:17:38;;;;;;;8.57;2.58;;;11.20;99.90;;;;;;6186248;23;20009;-82
2022/04/15 10:20:04;;;;;;;6.18;2.97;;;11.30;99.90;;;;;;6186211;23;20021;-82
2022/04/15 10:22:34;;;;;;;5.85;3.03;;;11.30;99.90;;;;;;6186434;23;20309;-91
2022/04/15 10:25:00;;;;;;;7.13;2.65;;;12.20;99.90;;;;;;6135571;23;20329;-91
2022/04/15 10:27:30;;;;;;;9.52;2.97;;;11.30;99.90;;;;;;6186095;23;20028;-90
2022/04/15 10:30:14;;;;;;;4.50;3.05;;;11.40;99.90;;;;;;6186189;23;20021;-84
2022/04/15 10:32:51;;;;;;;4.82;2.42;;;11.40;99.90;;;;;;6153775;23;20479;-83
2022/04/15 10:35:28;;;;;;;6.05;2.42;;;11.50;99.90;;;;;;6184754;23;20027;-82
2022/04/15 10:38:00;;;;;;;4.38;2.40;;;11.30;99.90;;;;;;6185718;23;20068;-84
2022/04/15 10:40:31;;;;;;;4.97;2.42;;;11.20;99.90;;;;;;6184628;23;20025;-82
2022/04/15 10:43:04;;;;;;;3.78;2.40;;;11.10;99.90;;;;;;6159300;23;20017;-82
2022/04/15 10:45:38;;;;;;;4.88;2.30;;;11.10;99.90;;;;;;6159537;23;20448;-83
2022/04/15 10:48:04;;;;;;;6.85;2.15;;;11.00;99.90;;;;;;6184510;23;20036;-84
2022/04/15 10:50:32;;;;;;;5.53;2.40;;;11.00;99.90;;;;;;6186002;23;20040;-83
2022/04/15 10:53:22;;;;;;;4.18;2.40;;;11.10;99.90;;;;;;6186179;23;20479;-84
2022/04/15 10:55:52;;;;;;;4.43;3.22;;;11.20;99.90;;;;;;6185192;23;20037;-84
2022/04/15 10:58:19;;;;;;;4.93;2.10;;;11.00;99.90;;;;;;6159575;23;20024;-85
2022/04/15 11:03:31;;;;;;;5.70;2.37;;;10.90;99.90;;;;;;6185577;23;20156;-84
2022/04/15 11:06:04;;;;;;;3.78;2.20;;;10.90;99.90;;;;;;6185488;23;20025;-86
2022/04/15 11:08:45;;;;;;;3.95;2.53;;;10.80;99.90;;;;;;6158843;23;20470;-85
2022/04/15 11:11:11;;;;;;;3.05;2.05;;;11.00;99.90;;;;;;6159093;23;20025;-83
2022/04/15 11:13:40;;;;;;;5.82;2.28;;;11.10;99.90;;;;;;6183999;23;20100;-85
2022/04/15 11:16:12;;;;;;;5.05;2.15;;;11.00;99.90;;;;;;6184289;23;20056;-85
2022/04/15 11:18:53;;;;;;;5.85;2.97;;;10.90;99.90;;;;;;6183721;23;20027;-85
2022/04/15 11:21:22;;;;;;;7.07;3.67;;;11.10;99.90;;;;;;6185706;23;20017;-85
2022/04/15 11:23:56;;;;;;;4.10;2.65;;;11.10;99.90;;;;;;6185153;23;20459;-86
2022/04/15 11:26:23;;;;;;;7.22;2.95;;;11.10;99.90;;;;;;6185225;23;20079;-84
2022/04/15 11:28:50;;;;;;;5.25;2.45;;;11.00;99.90;;;;;;6185521;23;20088;-86
2022/04/15 11:31:27;;;;;;;4.70;2.53;;;11.30;99.90;;;;;;6185613;23;20017;-85
2022/04/15 11:34:02;;;;;;;7.47;2.80;;;11.00;99.90;;;;;;6158865;23;20032;-85
2022/04/15 11:36:32;;;;;;;4.47;2.40;;;11.10;99.90;;;;;;6185620;23;20027;-88
2022/04/15 11:39:00;;;;;;;6.45;2.85;;;11.40;99.90;;;;;;6184997;23;20088;-86
2022/04/15 11:41:26;;;;;;;3.03;2.13;;;11.00;99.90;;;;;;6158946;23;20096;-86
2022/04/15 11:43:59;;;;;;;4.82;2.50;;;11.60;99.90;;;;;;6159194;23;20095;-86
2022/04/15 11:46:39;;;;;;;6.75;2.85;;;11.10;99.90;;;;;;6185371;23;20096;-86
2022/04/15 11:49:26;;;;;;;5.40;2.42;;;12.00;99.90;;;;;;6183567;23;20071;-84
2022/04/15 11:51:53;;;;;;;4.63;3.28;;;10.90;99.90;;;;;;6185316;23;20351;-84
2022/04/15 11:54:32;;;;;;;4.80;2.92;;;10.90;99.90;;;;;;6184826;23;20029;-85
2022/04/15 11:56:59;;;;;;;3.30;2.38;;;10.80;99.90;;;;;;6185133;23;20104;-84
2022/04/15 11:59:26;;;;;;;2.63;1.83;;;10.80;99.90;;;;;;6157446;23;20128;-85
2022/04/15 12:01:59;;;;;;;4.03;2.33;;;11.20;99.90;;;;;;6158292;23;20025;-84
2022/04/15 12:04:24;;;;;;;5.65;2.67;;;10.60;99.90;;;;;;6158244;23;20347;-84
2022/04/15 12:06:50;;;;;;;6.63;2.60;;;10.60;99.90;;;;;;6157954;23;20048;-82
2022/04/15 12:09:16;;;;;;;4.28;2.45;;;10.70;99.90;;;;;;6184959;23;20017;-84
2022/04/15 12:11:42;;;;;;;6.75;2.50;;;11.10;99.90;;;;;;6184800;23;20032;-85
2022/04/15 12:14:09;;;;;;;10.93;3.05;;;10.90;99.90;;;;;;6184386;23;20028;-83
2022/04/15 12:16:39;;;;;;;4.28;2.72;;;10.60;99.90;;;;;;6158360;23;20028;-83
2022/04/15 12:19:06;;;;;;;4.03;2.30;;;10.50;99.90;;;;;;6184988;23;20060;-83
2022/04/15 12:21:34;;;;;;;5.20;2.58;;;10.70;99.90;;;;;;6184197;23;20025;-84
2022/04/15 12:24:10;;;;;;;5.07;3.00;;;10.40;99.90;;;;;;6184882;23;20336;-84
2022/04/15 12:26:42;;;;;;;5.85;2.55;;;11.00;99.90;;;;;;6184894;23;20025;-83
2022/04/15 12:31:53;;;;;;;4.47;2.13;;;10.00;99.90;;;;;;6182807;23;20082;-83
2022/04/15 12:34:31;;;;;;;3.60;2.35;;;10.70;99.90;;;;;;6184618;23;20103;-84
2022/04/15 12:36:57;;;;;;;6.43;2.42;;;10.50;99.90;;;;;;6182558;23;20443;-83
2022/04/15 12:39:23;;;;;;;3.47;2.15;;;10.90;99.90;;;;;;6184449;23;20040;-85
2022/04/15 12:41:49;;;;;;;6.40;2.42;;;10.30;99.90;;;;;;6184293;23;20017;-84
2022/04/15 12:44:27;;;;;;;5.55;2.28;;;10.40;99.90;;;;;;6184668;23;20021;-86
2022/04/15 12:47:02;;;;;;;3.70;1.75;;;10.40;99.90;;;;;;6184624;23;20025;-85
2022/04/15 12:49:35;;;;;;;3.20;1.80;;;10.50;99.90;;;;;;6184089;23;20452;-85
2022/04/15 12:52:08;;;;;;;4.32;1.70;;;10.60;99.90;;;;;;6184049;23;20451;-86
2022/04/15 12:54:34;;;;;;;3.92;2.17;;;10.60;99.90;;;;;;6184686;23;20339;-86
2022/04/15 12:57:00;;;;;;;5.13;2.20;;;10.70;99.90;;;;;;6157488;23;20029;-87
2022/04/15 12:59:26;;;;;;;4.80;2.47;;;11.10;99.90;;;;;;6184376;23;20348;-85
2022/04/15 13:01:52;;;;;;;3.22;2.13;;;10.60;99.90;;;;;;6184317;23;20031;-86